createdAt,value
2019-06-25T03:30:14.310Z,97236.06
2019-06-25T03:32:44.529Z,97236.21
2019-06-25T03:35:14.838Z,97238.35
2019-06-25T03:37:45.116Z,97237.98
2019-06-25T03:40:17.175Z,97245.62
2019-06-25T03:42:47.533Z,97250.73
2019-06-25T03:45:19.624Z,97250.68
2019-06-25T03:47:49.824Z,97259.16
2019-06-25T03:50:19.977Z,97254.81
2019-06-25T03:52:50.297Z,97256.46
2019-06-25T03:55:20.619Z,97251.81
2019-06-25T03:57:50.845Z,97256.09
2019-06-25T04:00:23.540Z,97255.61
2019-06-25T04:02:56.129Z,97256.44
2019-06-25T04:05:26.261Z,97259.34
2019-06-25T04:07:56.407Z,97256.73
2019-06-25T04:10:26.546Z,97258.02
2019-06-25T04:12:57.611Z,97252.91
2019-06-25T04:15:27.905Z,97256.77
2019-06-25T04:17:58.145Z,97256.34
2019-06-25T04:20:28.323Z,97253.73
2019-06-25T04:22:58.623Z,97248.56
2019-06-25T04:25:28.838Z,97249.39
2019-06-25T04:27:59.033Z,97249.33
2019-06-25T04:30:29.301Z,97253.55
2019-06-25T04:35:30.576Z,97253.25
2019-06-25T04:38:00.761Z,97253.19
2019-06-25T04:40:30.960Z,97256.08
2019-06-25T04:43:01.344Z,97248.69
2019-06-25T04:45:31.501Z,97257.16
2019-06-25T04:48:02.533Z,97258.81
2019-06-25T04:50:32.726Z,97253.55
2019-06-25T04:53:02.984Z,97259.42
2019-06-25T04:55:34.416Z,97263.17
2019-06-25T04:58:04.744Z,97258.38
2019-06-25T05:00:35.728Z,97261.20
2019-06-25T05:03:05.942Z,97259.37
2019-06-25T05:05:36.274Z,97260.55
2019-06-25T05:08:06.674Z,97253.59
2019-06-25T05:10:38.214Z,97260.31
2019-06-25T05:13:08.438Z,97257.19
2019-06-25T05:15:40.260Z,97254.07
2019-06-25T05:18:10.411Z,97255.70
2019-06-25T05:20:42.208Z,97260.31
2019-06-25T05:23:12.870Z,97260.66
2019-06-25T05:25:44.104Z,97263.11
2019-06-25T05:28:14.420Z,97261.66
2019-06-25T05:30:44.773Z,97267.19
2019-06-25T05:33:15.247Z,97270.98
2019-06-25T05:35:50.439Z,97274.45
2019-06-25T05:38:21.519Z,97270.59
2019-06-25T05:40:52.760Z,97272.30
2019-06-25T05:43:22.988Z,97274.37
2019-06-25T05:45:53.361Z,97268.31
2019-06-25T05:48:23.682Z,97278.14
2019-06-25T05:50:54.705Z,97281.97
2019-06-25T05:53:25.829Z,97280.52
2019-06-25T05:55:56.022Z,97280.17
2019-06-25T05:58:26.239Z,97271.97
2019-06-25T06:00:56.570Z,97271.97
2019-06-25T06:03:26.726Z,97275.37
2019-06-25T06:05:57.413Z,97272.52
2019-06-25T06:08:28.758Z,97281.72
2019-06-25T06:10:58.952Z,97279.39
2019-06-25T06:13:30.740Z,97280.55
2019-06-25T06:16:00.903Z,97278.78
2019-06-25T06:18:39.502Z,97285.05
2019-06-25T06:21:09.885Z,97281.44
2019-06-25T06:23:40.300Z,97283.39
2019-06-25T06:26:17.999Z,97284.96
2019-06-25T06:28:43.106Z,97275.99
2019-06-25T06:31:17.642Z,97277.04
2019-06-25T06:33:49.973Z,97279.42
2019-06-25T06:36:18.853Z,97282.13
2019-06-25T06:38:49.129Z,97281.55
2019-06-25T06:41:19.356Z,97280.16
2019-06-25T06:43:49.623Z,97281.78
2019-06-25T06:46:19.906Z,97280.62
2019-06-25T06:48:50.070Z,97276.97
2019-06-25T06:51:20.403Z,97268.45
2019-06-25T06:53:50.605Z,97270.13
2019-06-25T06:56:20.820Z,97271.99
2019-06-25T06:58:51.532Z,97266.19
2019-06-25T07:01:21.739Z,97267.16
2019-06-25T07:03:53.688Z,97266.50
2019-06-25T07:06:24.036Z,97270.59
2019-06-25T07:08:54.330Z,97289.27
2019-06-25T07:11:24.775Z,97276.07
2019-06-25T07:13:54.967Z,97272.40
2019-06-25T07:16:25.134Z,97268.83
2019-06-25T07:18:56.191Z,97267.66
2019-06-25T07:21:27.169Z,97271.30
2019-06-25T07:23:57.339Z,97269.77
2019-06-25T07:26:27.502Z,97272.94
2019-06-25T07:28:58.697Z,97270.70
2019-06-25T07:31:29.772Z,97271.94
2019-06-25T07:34:09.134Z,97271.26
2019-06-25T07:36:31.789Z,97273.98
2019-06-25T07:39:01.890Z,97271.14
2019-06-25T07:41:32.083Z,97278.67
2019-06-25T07:44:02.179Z,97278.17
2019-06-25T07:46:32.535Z,97280.47
2019-06-25T07:49:02.866Z,97283.09
2019-06-25T07:51:33.187Z,97288.44
2019-06-25T07:54:03.322Z,97297.47
2019-06-25T07:56:36.984Z,97293.77
2019-06-25T07:59:05.394Z,97296.23
2019-06-25T08:01:37.365Z,97295.03
2019-06-25T08:04:07.623Z,97287.13
2019-06-25T08:06:37.779Z,97289.27
2019-06-25T08:09:09.610Z,97285.89
2019-06-25T08:11:40.696Z,97287.13
2019-06-25T08:14:10.874Z,97290.21
2019-06-25T08:16:41.093Z,97287.27
2019-06-25T08:19:11.285Z,97294.30
2019-06-25T08:21:41.553Z,97288.84
2019-06-25T08:24:12.373Z,97286.66
2019-06-25T08:26:42.735Z,97286.97
2019-06-25T08:29:14.746Z,97287.16
2019-06-25T08:31:44.925Z,97278.45
2019-06-25T08:34:15.150Z,97281.39
2019-06-25T08:36:46.269Z,97287.05
2019-06-25T08:39:17.200Z,97292.55
2019-06-25T08:41:47.390Z,97292.31
2019-06-25T08:44:17.644Z,97300.89
2019-06-25T08:46:47.844Z,97307.38
2019-06-25T08:49:21.903Z,97294.81
2019-06-25T08:51:52.099Z,97298.05
2019-06-25T08:54:22.402Z,97302.08
2019-06-25T08:56:52.675Z,97303.66
2019-06-25T08:59:25.969Z,97301.30
2019-06-25T09:01:54.731Z,97308.70
2019-06-25T09:04:25.020Z,97312.86
2019-06-25T09:06:55.221Z,97315.08
2019-06-25T09:09:26.191Z,97313.94
2019-06-25T09:11:57.180Z,97311.72
2019-06-25T09:14:27.582Z,97313.78
2019-06-25T09:16:59.685Z,97314.94
2019-06-25T09:19:30.077Z,97311.78
2019-06-25T09:22:00.230Z,97314.12
2019-06-25T09:24:31.573Z,97312.16
2019-06-25T09:27:03.287Z,97317.23
2019-06-25T09:29:34.345Z,97312.02
2019-06-25T09:32:05.405Z,97318.53
2019-06-25T09:34:36.150Z,97321.61
2019-06-25T09:37:06.584Z,97316.52
2019-06-25T09:39:41.633Z,97329.53
2019-06-25T09:42:10.087Z,97324.66
2019-06-25T09:44:40.144Z,97326.89
2019-06-25T09:47:10.331Z,97323.09
2019-06-25T09:49:40.868Z,97332.29
2019-06-25T09:52:11.055Z,97329.16
2019-06-25T09:54:41.657Z,97331.77
2019-06-25T09:57:11.859Z,97321.02
2019-06-25T09:59:42.090Z,97328.69
2019-06-25T10:02:12.209Z,97328.69
2019-06-25T10:04:42.498Z,97327.56
2019-06-25T10:07:15.589Z,97325.49
2019-06-25T10:09:44.679Z,97326.27
2019-06-25T10:12:15.549Z,97330.48
2019-06-25T10:14:45.742Z,97326.19
2019-06-25T10:17:16.693Z,97333.63
2019-06-25T10:19:46.881Z,97336.39
2019-06-25T10:22:17.894Z,97332.08
2019-06-25T10:24:48.088Z,97328.42
2019-06-25T10:27:18.324Z,97326.14
2019-06-25T10:29:49.452Z,97333.17
2019-06-25T10:32:20.519Z,97328.70
2019-06-25T10:34:50.633Z,97328.70
2019-06-25T10:37:21.570Z,97329.00
2019-06-25T10:39:51.804Z,97326.74
2019-06-25T10:42:23.024Z,97324.19
2019-06-25T10:44:53.239Z,97332.08
2019-06-25T10:47:23.537Z,97316.30
2019-06-25T10:49:53.830Z,97319.33
2019-06-25T10:52:24.807Z,97318.02
2019-06-25T10:54:54.993Z,97326.11
2019-06-25T10:57:25.374Z,97333.16
2019-06-25T10:59:55.837Z,97327.64
2019-06-25T11:02:29.108Z,97325.30
2019-06-25T11:04:58.086Z,97326.38
2019-06-25T11:07:29.034Z,97333.37
2019-06-25T11:09:59.252Z,97326.08
2019-06-25T11:12:30.274Z,97323.97
2019-06-25T11:15:01.349Z,97326.66
2019-06-25T11:17:31.965Z,97328.25
2019-06-25T11:20:02.154Z,97324.59
2019-06-25T11:22:32.516Z,97319.94
2019-06-25T11:25:02.770Z,97322.28
2019-06-25T11:27:32.925Z,97325.92
2019-06-25T11:30:04.013Z,97329.66
2019-06-25T11:32:35.191Z,97322.95
2019-06-25T11:35:06.556Z,97327.84
2019-06-25T11:37:36.798Z,97323.55
2019-06-25T11:40:07.145Z,97323.94
2019-06-25T11:42:38.360Z,97328.26
2019-06-25T11:45:09.389Z,97320.90
2019-06-25T11:47:39.531Z,97320.90
2019-06-25T11:50:10.370Z,97322.78
2019-06-25T11:52:41.301Z,97325.06
2019-06-25T11:55:11.556Z,97325.93
2019-06-25T11:57:41.752Z,97325.52
2019-06-25T12:00:13.014Z,97336.44
2019-06-25T12:02:43.240Z,97327.38
2019-06-25T12:05:13.601Z,97336.89
2019-06-25T12:07:43.800Z,97324.01
2019-06-25T12:10:14.976Z,97338.03
2019-06-25T12:12:45.974Z,97331.13
2019-06-25T12:15:16.379Z,97335.78
2019-06-25T12:17:47.359Z,97338.78
2019-06-25T12:20:17.727Z,97338.97
2019-06-25T12:22:47.902Z,97339.17
2019-06-25T12:25:18.163Z,97332.02
2019-06-25T12:27:48.529Z,97330.52
2019-06-25T12:30:18.865Z,97331.05
2019-06-25T12:32:49.303Z,97331.26
2019-06-25T12:35:20.592Z,97326.37
2019-06-25T12:37:52.413Z,97332.34
2019-06-25T12:40:22.758Z,97331.56
2019-06-25T12:42:53.031Z,97329.91
2019-06-25T12:45:23.245Z,97332.68
2019-06-25T12:47:53.497Z,97342.46
2019-06-25T12:50:24.806Z,97338.99
2019-06-25T12:52:55.775Z,97338.07
2019-06-25T12:55:26.081Z,97341.22
2019-06-25T12:57:57.148Z,97340.05
2019-06-25T13:00:28.612Z,97338.10
2019-06-25T13:02:58.837Z,97336.08
2019-06-25T13:05:29.090Z,97342.20
2019-06-25T13:07:59.311Z,97333.94
2019-06-25T13:10:43.118Z,97337.47
2019-06-25T13:13:01.494Z,97333.79
2019-06-25T13:15:31.694Z,97335.48
2019-06-25T13:18:01.895Z,97334.31
2019-06-25T13:20:32.035Z,97337.27
2019-06-25T13:23:02.403Z,97337.78
2019-06-25T13:25:33.582Z,97337.59
2019-06-25T13:28:06.136Z,97336.39
2019-06-25T13:30:36.400Z,97334.22
2019-06-25T13:33:06.624Z,97330.85
2019-06-25T13:35:36.922Z,97334.22
2019-06-25T13:38:08.791Z,97324.25
2019-06-25T13:40:39.010Z,97324.85
2019-06-25T13:43:12.509Z,97325.78
2019-06-25T13:45:42.838Z,97322.39
2019-06-25T13:48:13.001Z,97319.98
2019-06-25T13:50:43.945Z,97317.77
2019-06-25T13:53:14.154Z,97314.50
2019-06-25T13:55:44.321Z,97318.31
2019-06-25T13:58:17.541Z,97320.16
2019-06-25T14:00:47.815Z,97323.10
2019-06-25T14:03:20.876Z,97321.94
2019-06-25T14:05:51.058Z,97319.91
2019-06-25T14:08:21.325Z,97320.31
2019-06-25T14:10:51.497Z,97322.95
2019-06-25T14:13:21.763Z,97325.50
2019-06-25T14:15:52.048Z,97329.30
2019-06-25T14:18:22.307Z,97322.20
2019-06-25T14:20:52.524Z,97326.69
2019-06-25T14:23:22.753Z,97329.31
2019-06-25T14:26:08.939Z,97324.02
2019-06-25T14:28:24.966Z,97323.24
2019-06-25T14:30:55.946Z,97309.18
2019-06-25T14:33:27.062Z,97325.08
2019-06-25T14:35:58.287Z,97319.23
2019-06-25T14:38:29.652Z,97323.28
2019-06-25T14:40:59.870Z,97325.08
2019-06-25T14:43:30.277Z,97318.28
2019-06-25T14:46:00.513Z,97322.13
2019-06-25T14:48:30.727Z,97316.70
2019-06-25T14:51:00.959Z,97318.37
2019-06-25T14:53:31.212Z,97314.77
2019-06-25T14:56:01.459Z,97315.33
2019-06-25T14:58:35.082Z,97316.14
2019-06-25T15:01:06.123Z,97311.29
2019-06-25T15:03:36.350Z,97315.03
2019-06-25T15:06:06.966Z,97311.52
2019-06-25T15:08:37.181Z,97310.98
2019-06-25T15:11:07.459Z,97312.67
2019-06-25T15:13:37.839Z,97310.72
2019-06-25T15:16:08.062Z,97310.72
2019-06-25T15:18:38.354Z,97318.33
2019-06-25T15:21:10.163Z,97312.25
2019-06-25T15:23:41.720Z,97314.83
2019-06-25T15:26:12.449Z,97315.45
2019-06-25T15:28:42.781Z,97312.67
2019-06-25T15:31:13.744Z,97316.56
2019-06-25T15:33:44.058Z,97316.70
2019-06-25T15:36:15.010Z,97318.61
2019-06-25T15:38:47.699Z,97320.86
2019-06-25T15:41:17.235Z,97316.52
2019-06-25T15:43:47.477Z,97314.81
2019-06-25T15:46:17.683Z,97312.92
2019-06-25T15:48:48.101Z,97319.47
2019-06-25T15:51:20.701Z,97323.80
2019-06-25T15:53:50.907Z,97323.40
2019-06-25T15:56:21.891Z,97321.05
2019-06-25T15:58:52.164Z,97324.61
2019-06-25T16:01:24.172Z,97322.84
2019-06-25T16:03:54.607Z,97324.83
2019-06-25T16:06:25.049Z,97313.47
2019-06-25T16:09:03.190Z,97318.21
2019-06-25T16:11:27.392Z,97310.30
2019-06-25T16:13:57.563Z,97316.56
2019-06-25T16:16:29.315Z,97312.17
2019-06-25T16:19:00.465Z,97309.25
2019-06-25T16:21:30.614Z,97317.60
2019-06-25T16:24:00.864Z,97316.14
2019-06-25T16:26:33.987Z,97317.15
2019-06-25T16:29:05.100Z,97316.02
2019-06-25T16:31:36.904Z,97322.57
2019-06-25T16:34:07.152Z,97319.05
2019-06-25T16:36:37.613Z,97310.50
2019-06-25T16:39:18.647Z,97315.05
2019-06-25T16:41:41.960Z,97310.27
2019-06-25T16:44:12.246Z,97316.57
2019-06-25T16:46:42.627Z,97312.81
2019-06-25T16:49:12.884Z,97312.10
2019-06-25T16:51:43.107Z,97317.53
2019-06-25T16:54:13.495Z,97322.47
2019-06-25T16:56:43.799Z,97316.03
2019-06-25T16:59:15.578Z,97321.45
2019-06-25T17:01:45.790Z,97312.14
